^^
Datos históricos de la estación: Murcia-Puente Tocinos
Diario Informe para Octubre 24, 2020 Unidades:  Ingés    Métrico   Ambas
Diario Semanal Mensual Anual
  Máxima: Mínima: Promedio:
Temperatura: 74.8 °F 57.4 °F 65.1 °F
Punto de rocio: 55 °F 44.2 °F 47.7 °F
Humedad: 64% 36% 54%
Velocidad viento: 8.5mph 0mph 4mph
Racha viento: 19mph - -
Viento- - SSO
Presión: 30.3 in 30.1 in -
Precipitación: 0 in    
 
 
Tabla de datos para Octubre 24, 2020
Hora Temperatura Punto de rocio Presión Viento Velocidad viento Racha viento Humedad Intensidad lluvia(por hora) Nubes
00:04 66.7 °F 46.4 °F 30.2 in SO 5 mph 12 mph 48% 0 in
00:09 66.7 °F 46.4 °F 30.2 in SO 4.3 mph 11.5 mph 48% 0 in
00:14 66.7 °F 46.4 °F 30.2 in SSO 4.5 mph 12 mph 48% 0 in
00:19 66.7 °F 46.4 °F 30.2 in Sur 5.4 mph 8.1 mph 48% 0 in
00:24 66.6 °F 46.2 °F 30.2 in Sur 5.2 mph 8 mph 48% 0 in
00:29 66.4 °F 46 °F 30.2 in Sur 4.3 mph 8.1 mph 48% 0 in
00:34 66.2 °F 46.2 °F 30.2 in Sur 4.3 mph 8 mph 48.4% 0 in
00:39 66 °F 46.2 °F 30.2 in SSO 4.3 mph 7 mph 49% 0 in
00:44 65.8 °F 46 °F 30.2 in SO 4.2 mph 6.2 mph 49% 0 in
00:49 65.8 °F 46 °F 30.2 in SO 3.6 mph 6 mph 49% 0 in
00:54 65.7 °F 46 °F 30.2 in SSO 3.8 mph 18.5 mph 49.1% 0 in
00:59 65.8 °F 46.2 °F 30.2 in SSO 4.7 mph 19 mph 49% 0 in
01:04 65.8 °F 46 °F 30.2 in SSO 4.8 mph 9.2 mph 49% 0 in
01:09 65.7 °F 46 °F 30.2 in SO 5.4 mph 9 mph 49% 0 in
01:14 65.5 °F 46.2 °F 30.2 in Sur 5.4 mph 5.4 mph 50% 0 in
01:19 65.3 °F 46 °F 30.2 in Sur 4 mph 5.4 mph 50% 0 in
01:24 64.9 °F 46 °F 30.2 in Sur 4 mph 6.2 mph 50.3% 0 in
01:29 64.6 °F 46 °F 30.2 in SSE 3.6 mph 6.9 mph 51% 0 in
01:34 64 °F 46 °F 30.2 in SSE 3.6 mph 5.8 mph 51.9% 0 in
01:39 63.9 °F 45.9 °F 30.2 in SSE 4 mph 5.8 mph 52% 0 in
01:44 63.7 °F 46 °F 30.2 in Sur 4 mph 6 mph 52.7% 0 in
01:49 63.3 °F 46 °F 30.2 in Sur 3.7 mph 6.9 mph 53% 0 in
01:54 63.3 °F 45.9 °F 30.2 in SSE 3.6 mph 7 mph 53% 0 in
01:59 63.1 °F 45.9 °F 30.2 in SSE 4 mph 6.9 mph 53% 0 in
02:04 63.1 °F 45.7 °F 30.2 in SSE 4 mph 7 mph 53% 0 in
02:09 63 °F 46 °F 30.2 in Sur 4 mph 6.2 mph 54% 0 in
02:14 63 °F 45.9 °F 30.2 in OSO 4 mph 6 mph 54% 0 in
02:19 62.6 °F 46 °F 30.2 in SO 4 mph 6 mph 54.7% 0 in
02:24 62.2 °F 46 °F 30.2 in OSO 4 mph 5 mph 55.4% 0 in
02:29 61.9 °F 46.2 °F 30.2 in OSO 2.5 mph 5 mph 56.3% 0 in
02:34 61.5 °F 46 °F 30.2 in OSO 2.4 mph 5.2 mph 57% 0 in
02:39 61.3 °F 46.4 °F 30.2 in SSO 2.4 mph 6.2 mph 57.8% 0 in
02:44 61.2 °F 46.4 °F 30.2 in SO 2.4 mph 6.2 mph 58% 0 in
02:49 61.2 °F 46.4 °F 30.2 in OSO 4.3 mph 6 mph 58% 0 in
02:54 61 °F 46.2 °F 30.2 in Oeste 4.3 mph 5 mph 58.2% 0 in
02:59 60.6 °F 46.2 °F 30.2 in Oeste 3 mph 5 mph 59% 0 in
03:04 60.4 °F 46.4 °F 30.2 in SO 2.9 mph 5 mph 59.8% 0 in
03:09 60.4 °F 46.4 °F 30.2 in SSO 2.9 mph 5 mph 59.6% 0 in
03:14 60.6 °F 46.2 °F 30.2 in Sur 2.9 mph 5.9 mph 59% 0 in
03:19 61 °F 46.4 °F 30.2 in ONO 3.1 mph 6 mph 59% 0 in
03:24 60.6 °F 46.2 °F 30.2 in SO 3.1 mph 6 mph 59% 0 in
03:29 60.6 °F 46.2 °F 30.2 in SSO 2.9 mph 5.2 mph 59% 0 in
03:34 60.8 °F 46.4 °F 30.2 in SSO 2.9 mph 5 mph 59% 0 in
03:39 60.6 °F 46.2 °F 30.2 in OSO 3.1 mph 5 mph 58.9% 0 in
03:44 60.4 °F 46 °F 30.2 in Oeste 3.1 mph 5 mph 58.9% 0 in
03:49 60.3 °F 46 °F 30.2 in Oeste 2.4 mph 5 mph 59.6% 0 in
03:54 59.9 °F 45.9 °F 30.2 in Oeste 2.4 mph 5 mph 60% 0 in
03:59 59.5 °F 45.9 °F 30.2 in OSO 2.4 mph 5 mph 60.3% 0 in
04:04 59.4 °F 45.9 °F 30.2 in OSO 2.4 mph 4 mph 60.6% 0 in
04:09 59.4 °F 45.9 °F 30.2 in OSO 2.1 mph 4 mph 60.9% 0 in
04:14 59.4 °F 45.9 °F 30.2 in OSO 2 mph 3.5 mph 61% 0 in
04:19 59.4 °F 45.9 °F 30.2 in OSO 1.8 mph 3 mph 61% 0 in
04:24 59.2 °F 45.7 °F 30.2 in OSO 1.8 mph 3.6 mph 61% 0 in
04:29 59.2 °F 45.7 °F 30.2 in OSO 2 mph 4 mph 61% 0 in
04:34 59.4 °F 45.7 °F 30.2 in OSO 2 mph 4 mph 60.6% 0 in
04:39 59.4 °F 45.5 °F 30.2 in OSO 2.4 mph 3.6 mph 60% 0 in
04:44 59.4 °F 45.5 °F 30.2 in OSO 2.4 mph 4 mph 60.2% 0 in
04:49 59.4 °F 45.5 °F 30.2 in SSO 2.4 mph 4.6 mph 60.2% 0 in
04:54 59.2 °F 45.7 °F 30.2 in SSO 2.4 mph 4.6 mph 60.8% 0 in
04:59 59.2 °F 45.7 °F 30.2 in SSO 2 mph 5 mph 61% 0 in
05:04 59 °F 45.5 °F 30.2 in SSO 2 mph 5 mph 61% 0 in
05:09 58.8 °F 45.5 °F 30.2 in SSO 2.4 mph 5 mph 61% 0 in
05:14 58.6 °F 45.3 °F 30.2 in SSO 2.4 mph 5.4 mph 61% 0 in
05:19 58.6 °F 45.1 °F 30.2 in SSO 2.9 mph 6 mph 61% 0 in
05:24 58.6 °F 45.1 °F 30.2 in SO 2.9 mph 6 mph 61% 0 in
05:29 58.5 °F 45.1 °F 30.2 in SSO 3.6 mph 6 mph 61% 0 in
05:34 58.5 °F 44.6 °F 30.2 in SSO 3.6 mph 5 mph 60% 0 in
05:39 58.6 °F 44.8 °F 30.2 in Sur 2.9 mph 5 mph 60% 0 in
05:44 58.6 °F 44.8 °F 30.2 in Sur 2.9 mph 5 mph 60% 0 in
05:49 58.6 °F 44.8 °F 30.2 in Sur 2.9 mph 5.2 mph 60% 0 in
05:54 58.6 °F 44.8 °F 30.2 in SSO 2.9 mph 5.9 mph 60% 0 in
05:59 58.8 °F 44.8 °F 30.2 in Sur 3.6 mph 6 mph 59.7% 0 in
06:04 58.8 °F 45 °F 30.2 in SSO 3.6 mph 6 mph 60% 0 in
06:09 58.6 °F 44.8 °F 30.2 in SSO 3.6 mph 6.2 mph 60% 0 in
06:14 58.5 °F 44.6 °F 30.2 in SSO 3.6 mph 6 mph 60% 0 in
06:19 58.5 °F 44.6 °F 30.2 in SSO 3.6 mph 5.2 mph 60% 0 in
06:24 58.5 °F 44.6 °F 30.2 in SSO 3.6 mph 5 mph 60% 0 in
06:29 58.5 °F 44.6 °F 30.2 in SSO 3.1 mph 5.8 mph 60% 0 in
06:34 58.3 °F 44.4 °F 30.2 in SSO 3.1 mph 7.6 mph 60% 0 in
06:39 58.3 °F 44.4 °F 30.2 in SO 3.9 mph 8.1 mph 60% 0 in
06:44 58.3 °F 44.4 °F 30.2 in SO 4 mph 8 mph 60% 0 in
06:49 57.9 °F 44.2 °F 30.2 in SO 4.7 mph 8.1 mph 60.4% 0 in
06:54 57.9 °F 44.4 °F 30.3 in SSO 4.7 mph 8 mph 61% 0 in
06:59 57.9 °F 44.4 °F 30.3 in SSO 3.6 mph 6.2 mph 61% 0 in
07:04 57.9 °F 44.4 °F 30.3 in SSO 3.6 mph 6.9 mph 61% 0 in
07:09 57.9 °F 44.4 °F 30.3 in SO 4 mph 7 mph 61% 0 in
07:14 57.9 °F 44.2 °F 30.3 in SO 4 mph 7 mph 60.2% 0 in
07:19 57.9 °F 44.4 °F 30.3 in SO 4 mph 6 mph 61% 0 in
07:24 57.7 °F 44.4 °F 30.3 in SO 4 mph 5 mph 61% 0 in
07:29 57.7 °F 44.4 °F 30.3 in SO 3 mph 5.2 mph 61% 0 in
07:34 57.7 °F 44.4 °F 30.3 in SSO 2.9 mph 5 mph 61% 0 in
07:39 57.7 °F 44.4 °F 30.3 in Sur 2.9 mph 5 mph 61% 0 in
07:44 57.7 °F 44.4 °F 30.3 in Sur 2.9 mph 6.2 mph 61% 0 in
07:49 57.7 °F 44.8 °F 30.3 in Sur 3.6 mph 6 mph 61.9% 0 in
07:54 57.7 °F 44.8 °F 30.3 in Sur 3.6 mph 6.9 mph 62% 0 in
07:59 57.7 °F 44.8 °F 30.3 in SSO 3.6 mph 7 mph 62% 0 in
08:04 57.7 °F 44.8 °F 30.3 in SSO 3.6 mph 6 mph 62% 0 in
08:09 57.7 °F 44.8 °F 30.3 in SO 3.1 mph 6 mph 62% 0 in
08:14 57.7 °F 44.8 °F 30.3 in SO 3.1 mph 6 mph 62% 0 in
08:19 57.6 °F 45 °F 30.3 in OSO 2.4 mph 5 mph 62.6% 0 in
08:24 57.6 °F 45.1 °F 30.3 in OSO 2.4 mph 5 mph 63% 0 in
08:29 57.4 °F 45 °F 30.3 in OSO 2.4 mph 4 mph 63% 0 in
08:34 57.4 °F 45 °F 30.3 in SSO 2.4 mph 4 mph 63% 0 in
08:39 57.4 °F 45 °F 30.3 in SSO 2 mph 4 mph 63% 0 in
08:44 57.4 °F 45 °F 30.3 in SSO 2 mph 3.6 mph 63% 0 in
08:49 57.4 °F 45.3 °F 30.3 in SO 1.8 mph 4 mph 64% 0 in
08:54 57.4 °F 45.3 °F 30.3 in SO 1.8 mph 4.6 mph 64% 0 in
08:59 57.6 °F 45.3 °F 30.3 in SSO 2.4 mph 5.9 mph 63.6% 0 in
09:04 57.6 °F 45.3 °F 30.3 in SO 2.4 mph 6 mph 63.4% 0 in
09:09 57.7 °F 45.1 °F 30.3 in SO 4 mph 6 mph 63% 0 in
09:14 57.9 °F 45.3 °F 30.3 in SSO 4 mph 6 mph 63% 0 in
09:19 58.3 °F 45.5 °F 30.3 in Sur 3.6 mph 7.4 mph 62.6% 0 in
09:24 58.5 °F 45.5 °F 30.3 in SSO 3.6 mph 8.1 mph 62% 0 in
09:29 58.6 °F 45.7 °F 30.3 in SSO 4.2 mph 8.1 mph 62% 0 in
09:34 58.8 °F 45.5 °F 30.3 in SO 4.3 mph 8.1 mph 61.5% 0 in
09:39 59.2 °F 45.7 °F 30.3 in SSO 4.7 mph 8.1 mph 61% 0 in
09:44 59.4 °F 45.9 °F 30.3 in SO 4.7 mph 7 mph 61% 0 in
09:49 59.5 °F 46 °F 30.3 in SSO 3.7 mph 9.2 mph 60.6% 0 in
09:54 59.9 °F 45.9 °F 30.3 in SO 3.6 mph 9 mph 60% 0 in
09:59 60.1 °F 46 °F 30.3 in SSO 4.7 mph 9 mph 60% 0 in
10:04 60.3 °F 46.4 °F 30.3 in SSO 4.7 mph 8.1 mph 60% 0 in
10:09 60.4 °F 46.2 °F 30.3 in SSO 3.1 mph 8 mph 59.3% 0 in
10:14 61 °F 46.6 °F 30.3 in SSO 3.1 mph 6 mph 58.9% 0 in
10:19 61.2 °F 46.4 °F 30.3 in SSO 3.1 mph 6.9 mph 58% 0 in
10:24 61.5 °F 46.4 °F 30.3 in SSO 3.1 mph 10.4 mph 57.6% 0 in
10:29 61.5 °F 46.6 °F 30.3 in SSO 4.2 mph 10.7 mph 58% 0 in
10:34 61.5 °F 46.8 °F 30.3 in SO 4.3 mph 11 mph 58% 0 in
10:39 61.9 °F 46.9 °F 30.3 in SSO 5.4 mph 10 mph 58% 0 in
10:44 62.1 °F 47.1 °F 30.3 in SSO 5.4 mph 10.4 mph 58% 0 in
10:49 62.2 °F 47.3 °F 30.3 in SSO 4.7 mph 8.1 mph 58% 0 in
10:54 62.6 °F 47.3 °F 30.3 in SSO 4.7 mph 8.5 mph 57.5% 0 in
10:59 63 °F 47.5 °F 30.3 in SO 4.3 mph 9.2 mph 57.1% 0 in
11:04 63 °F 47.7 °F 30.3 in SO 4.3 mph 9.2 mph 57% 0 in
11:09 63.3 °F 47.7 °F 30.3 in SO 4.7 mph 9.2 mph 56.7% 0 in
11:14 63.7 °F 47.7 °F 30.3 in OSO 4.7 mph 9.2 mph 55.7% 0 in
11:19 64 °F 47.8 °F 30.3 in OSO 5.4 mph 9 mph 55.9% 0 in
11:24 64.4 °F 48 °F 30.3 in OSO 5.4 mph 8.1 mph 55.3% 0 in
11:29 64.9 °F 48 °F 30.3 in SO 4.7 mph 9.7 mph 54.2% 0 in
11:34 65.3 °F 47.8 °F 30.3 in SO 4.7 mph 11.5 mph 53.2% 0 in
11:39 65.5 °F 48 °F 30.3 in OSO 6.1 mph 12 mph 53% 0 in
11:44 65.8 °F 48.2 °F 30.3 in Oeste 6.2 mph 12 mph 53% 0 in
11:49 66 °F 48 °F 30.3 in OSO 6.2 mph 12 mph 52.4% 0 in
11:54 66.4 °F 48.2 °F 30.3 in OSO 6.2 mph 12 mph 52% 0 in
11:59 66.6 °F 48 °F 30.3 in SO 6.2 mph 12 mph 51.5% 0 in
12:04 66.7 °F 47.8 °F 30.3 in SO 6.2 mph 11.8 mph 50.8% 0 in
12:09 66.7 °F 47.8 °F 30.3 in SO 6.2 mph 12 mph 50.5% 0 in
12:14 66.7 °F 48 °F 30.3 in SO 6.2 mph 11 mph 50.9% 0 in
12:19 67.1 °F 48 °F 30.3 in SSO 6.2 mph 10.4 mph 50.4% 0 in
12:24 67.5 °F 47.8 °F 30.3 in SO 6.2 mph 10 mph 49.5% 0 in
12:29 67.5 °F 47.7 °F 30.3 in OSO 5.2 mph 10.4 mph 49% 0 in
12:34 67.5 °F 47.7 °F 30.3 in SO 5.2 mph 10 mph 49.1% 0 in
12:39 67.8 °F 47.8 °F 30.3 in Sur 4.3 mph 11.5 mph 48.8% 0 in
12:44 68.2 °F 47.7 °F 30.3 in SSO 4.3 mph 12 mph 47.9% 0 in
12:49 68.4 °F 47.5 °F 30.3 in SSO 4.7 mph 9 mph 47.3% 0 in
12:54 68.4 °F 47.5 °F 30.3 in OSO 4.7 mph 9.7 mph 47.1% 0 in
12:59 68.7 °F 47.5 °F 30.3 in SO 4.3 mph 10 mph 46.8% 0 in
13:04 69.1 °F 47.5 °F 30.3 in OSO 4.3 mph 7.4 mph 46% 0 in
13:09 69.1 °F 47.3 °F 30.3 in Oeste 4 mph 7 mph 46% 0 in
13:14 69.3 °F 47.7 °F 30.2 in SSO 4 mph 7.4 mph 46.3% 0 in
13:15 69.4 °F 47.3 °F 30.2 in SO 4 mph 7 mph 45.2% 0 in
13:24 70 °F 47.7 °F 30.2 in SSE 3.1 mph 5 mph 45% 0 in
13:29 70.3 °F 47.5 °F 30.2 in OSO 2 mph 8.1 mph 44% 0 in
13:34 70.3 °F 46.9 °F 30.2 in Oeste 2 mph 11.5 mph 43.1% 0 in
13:39 70.2 °F 47.1 °F 30.2 in Oeste 4.5 mph 12 mph 44% 0 in
13:44 70.3 °F 46.9 °F 30.2 in SO 4.7 mph 9.2 mph 43.3% 0 in
13:49 70.5 °F 46.6 °F 30.2 in OSO 4.3 mph 10.2 mph 42.4% 0 in
13:54 70.7 °F 46.6 °F 30.2 in OSO 4.3 mph 10.4 mph 42% 0 in
13:59 71.1 °F 46.2 °F 30.2 in Oeste 4.3 mph 12.7 mph 41% 0 in
14:04 70.7 °F 45.9 °F 30.2 in Oeste 4.3 mph 13 mph 41.1% 0 in
14:09 70.7 °F 46.2 °F 30.2 in Oeste 5.9 mph 9 mph 41.6% 0 in
14:14 71.2 °F 46.4 °F 30.2 in SO 5.9 mph 8.5 mph 41.2% 0 in
14:19 71.4 °F 46.2 °F 30.2 in OSO 3.7 mph 9.2 mph 40.7% 0 in
14:24 71.4 °F 45.9 °F 30.2 in ONO 3.6 mph 9 mph 40% 0 in
14:29 71.8 °F 46.2 °F 30.2 in NE 3.6 mph 8.1 mph 40% 0 in
14:34 72.3 °F 46.2 °F 30.2 in Oeste 3.6 mph 9 mph 39.4% 0 in
14:39 72.3 °F 46 °F 30.2 in SSO 3.1 mph 9 mph 39% 0 in
14:44 72.5 °F 45.5 °F 30.2 in SO 3.1 mph 10.4 mph 38.1% 0 in
14:49 72.7 °F 45.7 °F 30.2 in SSE 4 mph 10 mph 38% 0 in
14:54 72.9 °F 45.5 °F 30.2 in SO 4 mph 12.7 mph 37.6% 0 in
14:59 72.9 °F 45 °F 30.2 in SSO 4.3 mph 13 mph 37% 0 in
15:04 72.7 °F 45.1 °F 30.2 in SSO 4.3 mph 11.5 mph 37.2% 0 in
15:09 73 °F 45.1 °F 30.2 in SO 4.7 mph 10.7 mph 37% 0 in
15:14 73.2 °F 45.1 °F 30.2 in SSO 4.7 mph 11.8 mph 36.6% 0 in
15:19 73 °F 45 °F 30.2 in SO 6.7 mph 12 mph 36.7% 0 in
15:24 73 °F 45.1 °F 30.2 in SO 6.9 mph 8.1 mph 37% 0 in
15:29 73.2 °F 45.1 °F 30.2 in SSE 4.2 mph 8 mph 36.7% 0 in
15:34 73.6 °F 45.1 °F 30.2 in OSO 4 mph 7.4 mph 36.3% 0 in
15:39 73.9 °F 45.3 °F 30.2 in SO 3.1 mph 8.1 mph 36% 0 in
15:44 73.9 °F 45.3 °F 30.2 in SE 3.1 mph 10.4 mph 36% 0 in
15:49 73.8 °F 45.1 °F 30.2 in Este 5.3 mph 10 mph 36.3% 0 in
15:54 73.6 °F 45.3 °F 30.2 in Este 5.4 mph 8 mph 36.5% 0 in
15:59 73.8 °F 45.1 °F 30.2 in ESE 4 mph 8.1 mph 36% 0 in
16:04 73.9 °F 45.1 °F 30.2 in SSE 4 mph 8 mph 36% 0 in
16:09 73.9 °F 45.5 °F 30.2 in SSO 3.6 mph 6 mph 36% 0 in
16:14 74.5 °F 45.9 °F 30.2 in Este 3.6 mph 7.4 mph 36% 0 in
16:19 74.5 °F 45.9 °F 30.2 in SSO 2.9 mph 8.1 mph 36% 0 in
16:24 74.7 °F 46.2 °F 30.2 in SSE 2.9 mph 8 mph 36.4% 0 in
16:29 74.8 °F 46 °F 30.2 in SE 3.5 mph 12.7 mph 36.1% 0 in
16:34 74.8 °F 46 °F 30.2 in SE 3.6 mph 13 mph 36% 0 in
16:39 74.5 °F 46.6 °F 30.2 in SE 6.2 mph 12 mph 37.1% 0 in
16:44 74.1 °F 46.9 °F 30.1 in SSE 6.2 mph 9 mph 38% 0 in
16:49 73.9 °F 46.6 °F 30.1 in ESE 5.4 mph 8 mph 37.9% 0 in
16:54 73.9 °F 46.6 °F 30.1 in NNE 5.4 mph 7 mph 37.7% 0 in
16:59 74.3 °F 47.5 °F 30.1 in ESE 3.3 mph 9.2 mph 38.6% 0 in
17:04 74.5 °F 46.6 °F 30.1 in Este 3.1 mph 9 mph 37.2% 0 in
17:09 74.5 °F 48.6 °F 30.1 in SSE 4 mph 8.5 mph 40.1% 0 in
17:14 74.5 °F 49.5 °F 30.1 in SE 4 mph 11.5 mph 41.3% 0 in
17:19 74.5 °F 49.8 °F 30.1 in SSE 5.8 mph 12.7 mph 42.1% 0 in
17:24 73.9 °F 50.2 °F 30.1 in SSE 5.9 mph 14 mph 43% 0 in
17:25 73.8 °F 50 °F 30.1 in SE 5.9 mph 14 mph 43% 0 in
17:34 73.8 °F 50.5 °F 30.1 in SE 8.1 mph 12 mph 43.9% 0 in
17:39 73.9 °F 50.2 °F 30.1 in SE 7 mph 11.5 mph 43.4% 0 in
17:44 73.9 °F 50 °F 30.1 in SE 6.9 mph 12 mph 43% 0 in
17:49 73.8 °F 50 °F 30.1 in SE 6.4 mph 12 mph 43.1% 0 in
17:54 73.8 °F 50.5 °F 30.1 in SE 6.4 mph 10 mph 44% 0 in
17:59 74.1 °F 51.1 °F 30.1 in SE 5.3 mph 9.2 mph 44.5% 0 in
18:04 73.8 °F 51.4 °F 30.1 in SSE 5.2 mph 14 mph 45.5% 0 in
18:09 73.2 °F 51.8 °F 30.1 in SSE 7.3 mph 14 mph 46.9% 0 in
18:14 73 °F 52 °F 30.1 in SSE 7.4 mph 13.7 mph 47.5% 0 in
18:19 72.9 °F 52.5 °F 30.1 in SE 8.5 mph 14 mph 49.1% 0 in
18:24 72.7 °F 53.1 °F 30.1 in SSE 8.5 mph 14 mph 50.1% 0 in
18:29 72.5 °F 53.2 °F 30.1 in SE 8.1 mph 13 mph 51% 0 in
18:34 72.3 °F 53.4 °F 30.1 in SE 8.1 mph 12.5 mph 51.4% 0 in
18:39 72.1 °F 54.1 °F 30.1 in SE 6.5 mph 13 mph 53% 0 in
18:44 71.8 °F 54.3 °F 30.1 in SE 6.4 mph 13 mph 54.3% 0 in
18:49 71.4 °F 54.5 °F 30.1 in SSE 6.4 mph 12.5 mph 55% 0 in
18:50 71.2 °F 54.3 °F 30.1 in SE 6.5 mph 13 mph 55% 0 in
18:59 71.1 °F 54.7 °F 30.1 in SSE 7.3 mph 13 mph 56.2% 0 in
19:04 70.7 °F 54.7 °F 30.1 in SE 7.4 mph 13 mph 57.1% 0 in
19:09 70.3 °F 54.9 °F 30.1 in SSE 7.6 mph 13 mph 58% 0 in
19:14 70.2 °F 55 °F 30.1 in SSE 7.6 mph 12 mph 58.8% 0 in
19:19 69.8 °F 55 °F 30.1 in SE 6.4 mph 12 mph 59.4% 0 in
19:24 69.4 °F 55 °F 30.1 in SSE 6.4 mph 12.7 mph 60% 0 in
19:29 69.3 °F 54.9 °F 30.1 in SSE 7.4 mph 13 mph 60% 0 in
19:34 69.1 °F 54.1 °F 30.1 in SSE 7.4 mph 12 mph 59% 0 in
19:39 68.9 °F 53.8 °F 30.1 in SE 7.4 mph 12 mph 58.7% 0 in
19:44 68.7 °F 53.2 °F 30.1 in SSE 7.4 mph 10 mph 58% 0 in
19:49 68.5 °F 53.1 °F 30.1 in SE 6 mph 9.7 mph 57.7% 0 in
19:54 68.5 °F 52.7 °F 30.1 in SE 5.9 mph 10 mph 57% 0 in
19:59 68.4 °F 52.2 °F 30.1 in SE 5.4 mph 9.7 mph 56.3% 0 in
20:04 68.4 °F 51.8 °F 30.1 in SSE 5.4 mph 11.4 mph 55.6% 0 in
20:09 68.4 °F 51.4 °F 30.1 in SSE 6.3 mph 12 mph 55% 0 in
20:14 68.2 °F 51.4 °F 30.1 in SSE 6.4 mph 10 mph 55% 0 in
20:19 68.2 °F 51.3 °F 30.1 in SE 5.4 mph 7.4 mph 55% 0 in
20:24 68 °F 51.3 °F 30.1 in SE 5.4 mph 8.1 mph 55% 0 in
20:29 68 °F 51.1 °F 30.1 in ESE 4.3 mph 8 mph 55% 0 in
20:34 67.8 °F 51.3 °F 30.1 in ESE 4.3 mph 5 mph 55.6% 0 in
20:39 67.6 °F 51.6 °F 30.1 in ESE 2.9 mph 5.8 mph 56.6% 0 in
20:44 67.5 °F 51.8 °F 30.1 in ESE 2.9 mph 6 mph 57.5% 0 in
20:49 67.1 °F 51.8 °F 30.1 in ESE 2.9 mph 5.2 mph 58% 0 in
20:54 66.9 °F 51.6 °F 30.1 in ESE 2.9 mph 5 mph 57.9% 0 in
20:59 66.7 °F 51.1 °F 30.1 in ESE 2.4 mph 5 mph 57.2% 0 in
21:04 66.7 °F 51.3 °F 30.1 in ESE 2.4 mph 2 mph 57.7% 0 in
21:09 66.6 °F 51.1 °F 30.2 in Calm   1.8 mph 57.4% 0 in
21:14 66.6 °F 50.5 °F 30.2 in Calm   4.7 mph 56.6% 0 in
21:19 66.4 °F 50.4 °F 30.2 in SO 1.4 mph 5 mph 56.4% 0 in
21:24 66.4 °F 50.7 °F 30.2 in Oeste 1.4 mph 5 mph 57.2% 0 in
21:29 66 °F 51.1 °F 30.2 in Oeste 2 mph 5 mph 58.3% 0 in
21:34 65.8 °F 51.1 °F 30.2 in Oeste 2 mph 3.5 mph 59.1% 0 in
21:39 65.7 °F 51.3 °F 30.2 in Oeste 2 mph 4 mph 60% 0 in
21:44 65.3 °F 51.4 °F 30.2 in Oeste 2 mph 4 mph 61% 0 in
21:49 64.9 °F 51.3 °F 30.2 in Oeste 1.8 mph 3 mph 61% 0 in
21:54 64.9 °F 51.4 °F 30.2 in ONO 1.8 mph 3.6 mph 61.9% 0 in
21:59 64.8 °F 51.4 °F 30.2 in NO 1.8 mph 4.6 mph 62% 0 in
22:04 64.6 °F 51.3 °F 30.2 in NO 1.8 mph 5 mph 62% 0 in
22:09 64.4 °F 51.3 °F 30.2 in NO 2.4 mph 5 mph 62.4% 0 in
22:14 64 °F 51.1 °F 30.2 in ONO 2.4 mph 5 mph 62.5% 0 in
22:19 64 °F 50.7 °F 30.2 in Oeste 2.9 mph 5 mph 62% 0 in
22:24 64 °F 50.7 °F 30.2 in Oeste 2.9 mph 4.7 mph 62% 0 in
22:29 64 °F 50.5 °F 30.2 in OSO 2 mph 5.8 mph 61.4% 0 in
22:34 64.2 °F 50.4 °F 30.2 in SSO 2 mph 6 mph 60.7% 0 in
22:39 64.2 °F 50.5 °F 30.2 in Sur 2.9 mph 5.2 mph 60.7% 0 in
22:44 64.6 °F 50.7 °F 30.2 in SSE 2.9 mph 5.9 mph 61% 0 in
22:49 64.6 °F 50.5 °F 30.2 in Sur 3.1 mph 6.9 mph 60.3% 0 in
22:54 64.8 °F 50.2 °F 30.2 in Sur 3.1 mph 7 mph 59.1% 0 in
22:59 64.9 °F 50.4 °F 30.2 in Sur 4 mph 6 mph 59% 0 in
23:04 64.9 °F 50.4 °F 30.2 in Sur 4 mph 5 mph 59% 0 in
23:09 64.9 °F 50.4 °F 30.2 in Sur 2.5 mph 4 mph 59% 0 in
23:14 64.9 °F 50.2 °F 30.2 in Sur 2.4 mph 3.5 mph 59% 0 in
23:19 64.8 °F 50.2 °F 30.2 in Sur 2 mph 3 mph 59% 0 in
23:24 64.6 °F 50.2 °F 30.2 in Sur 2 mph 3 mph 59.6% 0 in
23:29 64.4 °F 50.2 °F 30.2 in Sur 0.1 mph 3.6 mph 60% 0 in
23:34 64 °F 50 °F 30.2 in Calm   4 mph 60% 0 in
23:39 63.9 °F 50.2 °F 30.2 in Calm   4.6 mph 60.9% 0 in
23:44 63.9 °F 50 °F 30.2 in Calm   4.7 mph 61% 0 in
23:49 63.5 °F 50.2 °F 30.2 in ESE 2.3 mph 5.9 mph 62% 0 in
23:54 63 °F 50.2 °F 30.2 in ESE 2.4 mph 6 mph 62.8% 0 in
23:59 62.6 °F 50.2 °F 30.2 in SE 2.9 mph 5 mph 63.8% 0 in
Murcia-Puente Tocinos, España
Compliments of Weather Underground - 3 mb

La estación de MeteoMurcia.com, publica sus datos en los siguientes proyectos:

Weather Underground PWS IMURCIAP2 Meteoclimatic www.awekas.at

W3Counter
Web Analytics